Trinity, Kentucky
Current Conditions -  °F | °C
As of 11:35 AM on Saturday 25 Oct 2014 (Local Time) from KFGX Reporting Station
Overcast Overcast  
Wind Chill: 56°   Ceiling: 3800
Heat Index: 56°   Visibility: 10mi
Dew Point: 49°   Wind: 8mph
Humidity: 78%   Direction: 230°SW
Pressure: 30.03"   Gusts: NA
Location:  38.4929°N, 83.3898°W
Report Text: KFGX 251535Z AUTO 23007KT 10SM SCT029 BKN038 OVC045 13/10 A3003 RMK AO2 T01340097
Loading
Personal Weather Stations






























Interactive Weather Map
Tropical Storm Tracking
New forecast layout! Learn more

10-Day Weather Forecast

Advertisements
Track Severe Weather on mobile